AirNav   Pilot Hours Calculator
 
 1330 users online  

99NY Hibbard's Airport
Wilson, New York, USA

GOING TO WILSON?


FAA INFORMATION EFFECTIVE 15 AUGUST 2019

Location

FAA Identifier: 99NY
Lat/Long: 43-14-00.2020N 078-47-14.1300W
43-14.003367N 078-47.235500W
43.2333894,-78.7872583
(estimated)
Elevation: 410 ft. / 125 m (estimated)
Variation: 10W (1985)
From city: 5 miles SE of WILSON, NY
Time zone: UTC -4 (UTC -5 during Standard Time)
Zip code: 14108

Airport Operations

Airport use: Private use. Permission required prior to landing
Activation date: 11/1974
Control tower: no
ARTCC: CLEVELAND CENTER
FSS: BUFFALO FLIGHT SERVICE STATION
Attendance: DAYLIGHT HOURS
Wind indicator: yes
Segmented circle: no

Airport Communications

WX ASOS at IAG (10 nm SW): PHONE 716-297-6984
WX ASOS at BUF (18 nm S): PHONE 716-635-0532

Nearby radio navigation aids

VOR radial/distance  VOR name  Freq  Var
BUFr349/19.3BUFFALO VOR/DME116.4008W

 
NDB name  Hdg/Dist  Freq  Var  ID
KATHI027/7.832910WIA .. .-

Airport Services

Runway Information

Runway 1/19

Dimensions: 1700 x 100 ft. / 518 x 30 m
Surface: turf
RUNWAY 1  RUNWAY 19
Traffic pattern: leftleft
Obstructions: nonepline

Airport Ownership and Management from official FAA records

Ownership: Privately-owned
Owner: ALBERT W. HIBBARD
IRISH ROAD
WILSON, NY 14172
Phone 716-751-6003
Manager: ALBERT W. HIBBARD
IRISH ROAD
WILSON, NY 14172
Phone 716-751-6003

Airport Operational Statistics

Aircraft based on the field: 3
Single engine airplanes: 3
    

Additional Remarks

FOR CD CTC CLEVELAND ARTCC AT 440-774-0490.

Instrument Procedures

There are no published instrument procedures at 99NY.

Some nearby airports with instrument procedures:

KIAG - Niagara Falls International Airport (10 nm SW)
KBUF - Buffalo Niagara International Airport (18 nm S)
9G3 - Akron Airport/Jesson Field (18 nm SE)
9G0 - Buffalo Airfield (22 nm S)
9G6 - Pine Hill Airport (23 nm E)
 
Loc | Ops | Rwys | IFR | FBO | Links
Com | Nav | Svcs | Stats | Notes
Area around 99NY (Hibbard's Airport)
 
Road maps at: MapQuest Bing Google
 
Aerial photo
No photo
 
Sectional chart

 
Airport distance calculator
Flying to Hibbard's Airport? Find the distance to fly.

From to 99NY

Sunrise and sunset
Times for 22-Aug-2019
 Local
(UTC-4)
 Zulu
(UTC)
Morning civil twilight05:5909:59
Sunrise06:2910:29
Sunset20:0700:07
Evening civil twilight20:3700:37

Current date and time
Zulu (UTC)  22-Aug-2019 21:20:28
Local (UTC-4)  22-Aug-2019 17:20:28
 
METAR
KIAG 
9nm SW 
222053Z 30007KT 10SM SCT050 22/11 A2995 RMK AO2 SLP139 T02170106 55006
CYSN 
17nm W 
222000Z 30007KT 280V350 15SM FEW050 SCT120 SCT230 24/11 A2993 RMK CU1AC2CI1 SLP137 DENSITY ALT 1400FT
KBUF 
18nm S 
222054Z VRB05KT 10SM BKN044 BKN100 BKN180 BKN280 23/13 A2996 RMK AO2 SLP140 T02280128 55006
CWWZ 
19nm W 
222000Z AUTO 30006KT 23/14 RMK AO1 SLP138 T02340144 56010
TAF
KIAG 
9nm SW 
221734Z 2218/2318 29010KT P6SM BKN250 FM230200 35005KT P6SM FEW250 FM231400 36006KT P6SM BKN040
CYSN 
17nm W 
221938Z 2220/2301 29010KT P6SM FEW040 BKN160 BKN200 BECMG 2223/2301 33006KT RMK NXT FCST WILL BE ISSUED AT 231245Z
KBUF 
18nm S 
221734Z 2218/2318 28008KT P6SM FEW035 BKN060 FM230200 35005KT P6SM FEW050 FEW250 FM231400 36006KT P6SM BKN035
NOTAMs
Click for the latest NOTAMs
NOTAMs are issued by the DoD/FAA and will open in a separate window not controlled by AirNav.

 

 
 

Would you like to see your business listed on this page?

 If your business provides an interesting product or service to pilots, flight crews, aircraft, or users of the Hibbard's Airport, you should consider listing it here.  To start the listing process, click on the button below
 
Add a business
 

Other Pages about Hibbard's Airport

Update a link
 
Copyright © AirNav, LLC. All rights reserved. Privacy Policy  Contact